createdAt,value
2023-02-01T00:01:08.289Z,102045.78
2023-02-01T00:03:34.950Z,102031.84
2023-02-01T00:06:02.179Z,102035.56
2023-02-01T00:08:28.688Z,102022.69
2023-02-01T00:11:07.497Z,102031.75
2023-02-01T00:13:36.144Z,102035.25
2023-02-01T00:16:19.120Z,102037.66
2023-02-01T00:18:46.849Z,102036.03
2023-02-01T00:21:15.265Z,102024.53
2023-02-01T00:23:42.049Z,102029.84
2023-02-01T00:26:15.062Z,102033.84
2023-02-01T00:28:41.600Z,102027.38
2023-02-01T00:31:17.154Z,102019.84
2023-02-01T00:33:43.642Z,102022.00
2023-02-01T00:36:10.871Z,102016.06
2023-02-01T00:38:38.629Z,102016.59
2023-02-01T00:41:14.138Z,102010.41
2023-02-01T00:43:41.157Z,102018.44
2023-02-01T00:46:08.214Z,102025.69
2023-02-01T00:48:35.063Z,102029.72
2023-02-01T00:51:03.036Z,102029.69
2023-02-01T00:53:30.544Z,102020.22
2023-02-01T00:55:57.758Z,102024.78
2023-02-01T00:58:27.742Z,102023.69
2023-02-01T01:01:10.812Z,102022.63
2023-02-01T01:03:42.220Z,102027.44
2023-02-01T01:08:56.715Z,102024.47
2023-02-01T01:11:35.250Z,102016.94
2023-02-01T01:14:02.108Z,102017.72
2023-02-01T01:16:31.225Z,102012.59
2023-02-01T01:18:58.761Z,101997.59
2023-02-01T01:21:28.987Z,102006.16
2023-02-01T01:23:55.676Z,102004.00
2023-02-01T01:26:25.291Z,102012.59
2023-02-01T01:28:52.572Z,102008.03
2023-02-01T01:31:31.079Z,102014.16
2023-02-01T01:33:59.836Z,102002.81
2023-02-01T01:36:27.791Z,102006.88
2023-02-01T01:38:54.799Z,101999.16
2023-02-01T01:41:32.895Z,101994.06
2023-02-01T01:44:02.445Z,101997.81
2023-02-01T01:46:37.649Z,101995.84
2023-02-01T01:49:12.648Z,101998.22
2023-02-01T01:51:44.684Z,102000.06
2023-02-01T01:54:24.912Z,101990.72
2023-02-01T01:56:57.865Z,101994.66
2023-02-01T01:59:25.537Z,101984.41
2023-02-01T02:01:53.359Z,101981.97
2023-02-01T02:04:20.772Z,101980.84
2023-02-01T02:07:01.235Z,101978.69
2023-02-01T02:09:27.713Z,101975.44
2023-02-01T02:11:54.284Z,101971.09
2023-02-01T02:14:23.973Z,101975.88
2023-02-01T02:16:56.744Z,101978.22
2023-02-01T02:19:47.149Z,101974.53
2023-02-01T02:22:40.344Z,101975.03
2023-02-01T02:25:18.970Z,101963.16
2023-02-01T02:28:23.198Z,101963.44
2023-02-01T02:31:21.041Z,101953.28
2023-02-01T02:34:09.460Z,101951.31
2023-02-01T02:36:44.114Z,101953.72
2023-02-01T02:39:23.279Z,101944.38
2023-02-01T02:42:34.115Z,101946.47
2023-02-01T02:45:36.868Z,101944.81
2023-02-01T02:48:26.994Z,101945.53
2023-02-01T02:51:25.289Z,101957.06
2023-02-01T02:54:28.380Z,101944.69
2023-02-01T02:57:16.716Z,101926.41
2023-02-01T03:00:05.063Z,101933.88
2023-02-01T03:02:51.473Z,101916.88
2023-02-01T03:05:18.100Z,101911.78
2023-02-01T03:07:58.225Z,101914.13
2023-02-01T03:10:30.708Z,101905.19
2023-02-01T03:13:04.496Z,101923.50
2023-02-01T03:15:58.390Z,101911.66
2023-02-01T03:18:51.190Z,101913.03
2023-02-01T03:21:24.960Z,101911.50
2023-02-01T03:23:53.336Z,101918.56
2023-02-01T03:26:22.932Z,101914.34
2023-02-01T03:28:56.951Z,101914.19
2023-02-01T03:31:24.745Z,101905.63
2023-02-01T03:33:51.654Z,101901.16
2023-02-01T03:36:32.708Z,101904.75
2023-02-01T03:39:17.535Z,101918.44
2023-02-01T03:41:51.200Z,101919.81
2023-02-01T03:44:17.519Z,101926.50
2023-02-01T03:46:52.486Z,101927.56
2023-02-01T03:49:28.594Z,101910.41
2023-02-01T03:51:57.880Z,101932.16
2023-02-01T03:54:26.265Z,101932.16
2023-02-01T03:56:55.133Z,101934.34
2023-02-01T03:59:21.661Z,101917.13
2023-02-01T04:01:48.292Z,101920.41
2023-02-01T04:04:20.797Z,101928.22
2023-02-01T04:06:49.805Z,101917.44
2023-02-01T04:09:16.920Z,101919.47
2023-02-01T04:11:43.966Z,101910.56
2023-02-01T04:14:10.777Z,101912.97
2023-02-01T04:16:37.506Z,101912.38
2023-02-01T04:19:03.961Z,101921.16
2023-02-01T04:21:30.509Z,101916.00
2023-02-01T04:23:56.956Z,101921.31
2023-02-01T04:26:23.426Z,101929.59
2023-02-01T04:28:49.967Z,101933.81
2023-02-01T04:31:17.621Z,101954.69
2023-02-01T04:33:47.552Z,101942.09
2023-02-01T04:36:34.489Z,101932.91
2023-02-01T04:39:01.221Z,101927.03
2023-02-01T04:41:27.708Z,101906.97
2023-02-01T04:43:54.302Z,101913.13
2023-02-01T04:46:20.807Z,101922.84
2023-02-01T04:48:47.331Z,101919.41
2023-02-01T04:51:13.981Z,101917.91
2023-02-01T04:53:40.416Z,101917.97
2023-02-01T04:56:07.353Z,101916.22
2023-02-01T04:58:33.875Z,101909.53
2023-02-01T05:01:05.121Z,101905.75
2023-02-01T05:03:35.830Z,101909.59
2023-02-01T05:06:05.024Z,101907.66
2023-02-01T05:08:32.596Z,101917.59
2023-02-01T05:11:00.207Z,101905.13
2023-02-01T05:13:45.348Z,101910.94
2023-02-01T05:16:12.060Z,101904.56
2023-02-01T05:18:39.041Z,101910.28
2023-02-01T05:21:05.756Z,101899.59
2023-02-01T05:23:32.441Z,101907.94
2023-02-01T05:26:02.736Z,101906.03
2023-02-01T05:28:29.809Z,101911.28
2023-02-01T05:30:56.744Z,101914.19
2023-02-01T05:33:23.284Z,101919.19
2023-02-01T05:35:51.371Z,101922.91
2023-02-01T05:38:17.924Z,101913.97
2023-02-01T05:40:50.399Z,101918.84
2023-02-01T05:43:16.784Z,101926.41
2023-02-01T05:45:44.335Z,101924.00
2023-02-01T05:48:10.878Z,101917.56
2023-02-01T05:50:37.323Z,101924.28
2023-02-01T05:53:03.876Z,101919.69
2023-02-01T05:55:30.366Z,101929.66
2023-02-01T05:57:56.823Z,101929.38
2023-02-01T06:00:24.229Z,101917.00
2023-02-01T06:02:50.927Z,101915.94
2023-02-01T06:05:17.499Z,101921.59
2023-02-01T06:07:43.983Z,101922.91
2023-02-01T06:10:10.958Z,101918.84
2023-02-01T06:12:38.067Z,101934.66
2023-02-01T06:15:05.034Z,101916.94
2023-02-01T06:17:34.675Z,101927.97
2023-02-01T06:20:01.101Z,101921.53
2023-02-01T06:22:27.553Z,101924.22
2023-02-01T06:24:53.977Z,101923.94
2023-02-01T06:27:20.418Z,101926.13
2023-02-01T06:29:47.001Z,101922.09
2023-02-01T06:32:13.511Z,101921.31
2023-02-01T06:34:40.534Z,101930.81
2023-02-01T06:37:06.953Z,101938.34
2023-02-01T06:39:33.509Z,101935.88
2023-02-01T06:42:00.221Z,101940.47
2023-02-01T06:44:26.667Z,101943.94
2023-02-01T06:46:53.102Z,101944.53
2023-02-01T06:49:20.810Z,101951.78
2023-02-01T06:51:47.616Z,101942.69
2023-02-01T06:54:14.288Z,101944.88
2023-02-01T06:56:40.743Z,101959.16
2023-02-01T06:59:08.543Z,101952.50
2023-02-01T07:01:35.078Z,101944.44
2023-02-01T07:04:01.665Z,101960.25
2023-02-01T07:06:28.215Z,101947.34
2023-02-01T07:08:56.832Z,101945.66
2023-02-01T07:11:23.685Z,101944.81
2023-02-01T07:13:50.759Z,101944.00
2023-02-01T07:16:19.877Z,101953.38
2023-02-01T07:18:47.191Z,101945.31
2023-02-01T07:21:14.280Z,101931.97
2023-02-01T07:23:40.899Z,101936.81
2023-02-01T07:26:10.525Z,101937.63
2023-02-01T07:28:38.505Z,101935.44
2023-02-01T07:31:07.106Z,101934.94
2023-02-01T07:36:27.312Z,101959.22
2023-02-01T07:38:56.501Z,101947.13
2023-02-01T07:41:23.572Z,101937.97
2023-02-01T07:44:07.783Z,101932.03
2023-02-01T07:46:46.387Z,101939.72
2023-02-01T07:49:14.981Z,101936.75
2023-02-01T07:51:53.635Z,101937.19
2023-02-01T07:54:20.280Z,101938.72
2023-02-01T07:56:47.401Z,101930.59
2023-02-01T07:59:14.188Z,101946.13
2023-02-01T08:01:43.035Z,101943.66
2023-02-01T08:06:59.241Z,101959.50
2023-02-01T08:09:28.830Z,101964.56
2023-02-01T08:11:55.239Z,101961.09
2023-02-01T08:14:21.789Z,101968.13
2023-02-01T08:16:48.247Z,101958.47
2023-02-01T08:19:14.786Z,101949.38
2023-02-01T08:21:41.598Z,101960.38
2023-02-01T08:24:10.532Z,101960.59
2023-02-01T08:26:37.047Z,101953.63
2023-02-01T08:29:05.634Z,101948.41
2023-02-01T08:31:32.256Z,101937.09
2023-02-01T08:34:05.281Z,101939.78
2023-02-01T08:36:32.819Z,101937.50
2023-02-01T08:38:59.499Z,101929.34
2023-02-01T08:41:29.997Z,101929.81
2023-02-01T08:43:58.008Z,101936.81
2023-02-01T08:46:24.799Z,101935.09
2023-02-01T08:48:51.980Z,101940.41
2023-02-01T08:51:20.363Z,101926.97
2023-02-01T08:53:47.227Z,101948.72
2023-02-01T08:56:16.510Z,101927.97
2023-02-01T08:58:49.101Z,101930.47
2023-02-01T09:01:17.949Z,101940.13
2023-02-01T09:03:44.998Z,101930.28
2023-02-01T09:06:13.891Z,101913.06
2023-02-01T09:08:41.897Z,101930.22
2023-02-01T09:11:12.653Z,101915.59
2023-02-01T09:13:42.253Z,101914.06
2023-02-01T09:16:08.974Z,101932.09
2023-02-01T09:18:36.091Z,101915.50
2023-02-01T09:21:11.759Z,101914.66
2023-02-01T09:23:38.186Z,101904.75
2023-02-01T09:26:05.990Z,101896.16
2023-02-01T09:28:41.629Z,101908.34
2023-02-01T09:31:08.166Z,101914.16
2023-02-01T09:33:34.661Z,101921.47
2023-02-01T09:36:03.696Z,101922.94
2023-02-01T09:38:31.078Z,101933.91
2023-02-01T09:41:01.738Z,101936.22
2023-02-01T09:43:51.331Z,101925.84
2023-02-01T09:46:33.929Z,101921.66
2023-02-01T09:49:11.594Z,101926.53
2023-02-01T09:51:42.373Z,101923.38
2023-02-01T09:54:22.839Z,101923.38
2023-02-01T09:57:08.889Z,101925.56
2023-02-01T09:59:53.605Z,101924.84
2023-02-01T10:02:26.764Z,101929.53
2023-02-01T10:04:58.821Z,101936.81
2023-02-01T10:08:13.644Z,101940.78
2023-02-01T10:10:50.555Z,101921.66
2023-02-01T10:13:39.694Z,101906.31
2023-02-01T10:16:48.272Z,101907.59
2023-02-01T10:19:48.099Z,101911.47
2023-02-01T10:23:08.745Z,101925.13
2023-02-01T10:25:38.093Z,101920.84
2023-02-01T10:28:05.496Z,101920.75
2023-02-01T10:30:41.614Z,101939.97
2023-02-01T10:33:19.477Z,101939.75
2023-02-01T10:35:47.426Z,101921.50
2023-02-01T10:38:31.206Z,101915.34
2023-02-01T10:41:20.633Z,101918.03
2023-02-01T10:43:51.440Z,101923.63
2023-02-01T10:46:18.513Z,101921.41
2023-02-01T10:48:45.141Z,101924.31
2023-02-01T10:51:20.860Z,101904.91
2023-02-01T10:53:54.009Z,101905.09
2023-02-01T10:56:42.598Z,101893.56
2023-02-01T10:59:19.784Z,101902.91
2023-02-01T11:01:49.422Z,101902.03
2023-02-01T11:04:18.895Z,101891.38
2023-02-01T11:07:05.443Z,101894.16
2023-02-01T11:09:32.513Z,101899.16
2023-02-01T11:12:00.523Z,101881.59
2023-02-01T11:14:34.801Z,101876.22
2023-02-01T11:17:13.379Z,101877.72
2023-02-01T11:19:39.805Z,101875.81
2023-02-01T11:22:06.797Z,101869.16
2023-02-01T11:24:36.845Z,101890.16
2023-02-01T11:27:07.130Z,101890.97
2023-02-01T11:29:38.970Z,101896.25
2023-02-01T11:32:06.124Z,101892.63
2023-02-01T11:34:48.600Z,101888.56
2023-02-01T11:37:21.736Z,101884.75
2023-02-01T11:40:17.508Z,101872.31
2023-02-01T11:42:59.428Z,101883.88
2023-02-01T11:45:28.763Z,101902.91
2023-02-01T11:47:57.129Z,101891.81
2023-02-01T11:50:35.560Z,101878.25
2023-02-01T11:53:53.125Z,101866.88
2023-02-01T11:56:28.572Z,101869.03
2023-02-01T11:59:16.320Z,101880.97
2023-02-01T12:01:42.815Z,101864.97
2023-02-01T12:04:37.060Z,101860.75
2023-02-01T12:07:28.964Z,101858.69
2023-02-01T12:10:23.396Z,101865.28
2023-02-01T12:13:04.851Z,101864.19
2023-02-01T12:15:48.175Z,101855.63
2023-02-01T12:18:23.681Z,101861.84
2023-02-01T12:21:23.881Z,101862.84
2023-02-01T12:23:50.317Z,101865.34
2023-02-01T12:26:22.662Z,101853.91
2023-02-01T12:29:21.520Z,101858.31
2023-02-01T12:31:55.862Z,101861.94
2023-02-01T12:34:37.702Z,101867.63
2023-02-01T12:37:29.252Z,101855.25
2023-02-01T12:40:11.831Z,101853.47
2023-02-01T12:42:47.469Z,101860.06
2023-02-01T12:45:31.855Z,101868.91
2023-02-01T12:48:22.415Z,101859.03
2023-02-01T12:50:54.137Z,101861.53
2023-02-01T12:53:27.017Z,101860.56
2023-02-01T12:55:56.535Z,101860.75
2023-02-01T12:58:23.023Z,101849.34
2023-02-01T13:01:09.644Z,101852.56
2023-02-01T13:03:54.029Z,101859.22
2023-02-01T13:06:22.683Z,101860.19
2023-02-01T13:09:03.108Z,101855.31
2023-02-01T13:11:34.861Z,101854.50
2023-02-01T13:14:25.923Z,101843.84
2023-02-01T13:16:58.779Z,101846.66
2023-02-01T13:19:58.517Z,101855.38
2023-02-01T13:22:42.251Z,101855.97
2023-02-01T13:25:11.548Z,101859.28
2023-02-01T13:27:39.025Z,101854.19
2023-02-01T13:30:21.059Z,101862.44
2023-02-01T13:33:52.641Z,101852.69
2023-02-01T13:35:58.689Z,101858.25
2023-02-01T13:38:56.314Z,101870.13
2023-02-01T13:41:29.483Z,101866.81
2023-02-01T13:44:07.409Z,101870.00
2023-02-01T13:46:46.405Z,101880.78
2023-02-01T13:49:28.997Z,101865.69
2023-02-01T13:51:58.241Z,101850.84
2023-02-01T13:54:48.049Z,101862.41
2023-02-01T13:57:38.393Z,101865.59
2023-02-01T14:00:23.883Z,101872.28
2023-02-01T14:03:02.417Z,101878.44
2023-02-01T14:05:31.851Z,101871.97
2023-02-01T14:08:07.245Z,101875.44
2023-02-01T14:10:46.063Z,101859.28
2023-02-01T14:13:40.320Z,101881.31
2023-02-01T14:16:07.388Z,101875.34
2023-02-01T14:18:45.274Z,101864.56
2023-02-01T14:21:23.771Z,101875.94
2023-02-01T14:23:53.458Z,101882.75
2023-02-01T14:26:46.888Z,101873.88
2023-02-01T14:29:20.835Z,101873.38
2023-02-01T14:32:06.780Z,101860.19
2023-02-01T14:34:36.170Z,101867.50
2023-02-01T14:37:09.999Z,101875.38
2023-02-01T14:39:47.501Z,101868.09
2023-02-01T14:42:28.223Z,101863.72
2023-02-01T14:45:16.205Z,101859.09
2023-02-01T14:47:43.187Z,101860.72
2023-02-01T14:50:34.516Z,101881.97
2023-02-01T14:53:16.149Z,101852.94
2023-02-01T14:55:59.839Z,101860.00
2023-02-01T14:58:35.500Z,101869.63
2023-02-01T15:01:13.908Z,101868.44
2023-02-01T15:04:11.185Z,101858.91
2023-02-01T15:06:41.001Z,101875.16
2023-02-01T15:09:18.188Z,101874.97
2023-02-01T15:12:05.393Z,101878.47
2023-02-01T15:14:35.760Z,101887.31
2023-02-01T15:17:02.559Z,101889.22
2023-02-01T15:19:31.503Z,101890.34
2023-02-01T15:21:59.555Z,101886.84
2023-02-01T15:24:28.163Z,101891.44
2023-02-01T15:26:56.392Z,101896.50
2023-02-01T15:29:28.954Z,101909.19
2023-02-01T15:32:02.255Z,101894.13
2023-02-01T15:34:50.748Z,101904.00
2023-02-01T15:37:19.419Z,101906.06
2023-02-01T15:40:06.202Z,101904.69
2023-02-01T15:42:32.771Z,101901.97
2023-02-01T15:44:59.667Z,101907.38
2023-02-01T15:47:31.659Z,101901.56
2023-02-01T15:50:00.932Z,101892.56
2023-02-01T15:52:37.401Z,101923.78
2023-02-01T15:55:09.983Z,101906.03
2023-02-01T15:57:40.695Z,101924.59
2023-02-01T16:00:22.518Z,101923.00
2023-02-01T16:02:55.590Z,101922.31
2023-02-01T16:05:45.860Z,101919.94
2023-02-01T16:08:22.856Z,101920.84
2023-02-01T16:10:52.444Z,101930.63
2023-02-01T16:13:20.995Z,101918.13
2023-02-01T16:15:48.984Z,101929.69
2023-02-01T16:18:17.826Z,101935.09
2023-02-01T16:20:45.344Z,101912.88
2023-02-01T16:23:12.084Z,101927.13
2023-02-01T16:28:50.483Z,101932.78
2023-02-01T16:31:20.458Z,101921.25
2023-02-01T16:33:51.333Z,101932.78
2023-02-01T16:36:18.835Z,101934.09
2023-02-01T16:38:54.847Z,101931.41
2023-02-01T16:41:23.479Z,101915.75
2023-02-01T16:43:58.905Z,101937.59
2023-02-01T16:46:30.883Z,101938.69
2023-02-01T16:48:59.749Z,101939.19
2023-02-01T16:51:33.093Z,101948.34
2023-02-01T16:54:00.663Z,101953.16
2023-02-01T16:56:32.042Z,101960.00
2023-02-01T16:58:58.551Z,101961.63
2023-02-01T17:01:25.835Z,101962.91
2023-02-01T17:03:52.710Z,101962.09
2023-02-01T17:06:22.772Z,101974.97
2023-02-01T17:08:53.872Z,101983.84
2023-02-01T17:11:20.771Z,101976.38
2023-02-01T17:13:47.740Z,101987.75
2023-02-01T17:16:29.054Z,101989.44
2023-02-01T17:18:59.680Z,101981.88
2023-02-01T17:21:28.744Z,101978.38
2023-02-01T17:23:56.056Z,101979.47
2023-02-01T17:26:22.504Z,101976.50
2023-02-01T17:28:49.118Z,101988.84
2023-02-01T17:31:17.435Z,101981.66
2023-02-01T17:33:44.838Z,101978.47
2023-02-01T17:36:15.213Z,102000.00
2023-02-01T17:38:43.213Z,101997.63
2023-02-01T17:41:12.699Z,101994.03
2023-02-01T17:43:39.319Z,102002.41
2023-02-01T17:46:14.824Z,101997.81
2023-02-01T17:48:41.793Z,101982.19
2023-02-01T17:51:17.588Z,101979.78
2023-02-01T17:53:58.022Z,101984.88
2023-02-01T17:56:37.909Z,101981.25
2023-02-01T17:59:04.836Z,101972.88
2023-02-01T18:01:38.112Z,101971.19
2023-02-01T18:04:04.651Z,101969.97
2023-02-01T18:06:43.081Z,101981.44
2023-02-01T18:09:09.884Z,101970.06
2023-02-01T18:11:36.329Z,101977.94
2023-02-01T18:14:02.956Z,101981.75
2023-02-01T18:16:34.493Z,101981.97
2023-02-01T18:19:05.184Z,101972.88
2023-02-01T18:21:43.994Z,101960.53
2023-02-01T18:24:15.343Z,101979.47
2023-02-01T18:26:42.530Z,101998.63
2023-02-01T18:29:10.358Z,102010.41
2023-02-01T18:31:49.566Z,102003.91
2023-02-01T18:34:25.202Z,102000.59
2023-02-01T18:36:51.603Z,102003.09
2023-02-01T18:39:18.423Z,102001.72
2023-02-01T18:41:48.058Z,101998.13
2023-02-01T18:44:15.973Z,101995.03
2023-02-01T18:46:42.945Z,101993.34
2023-02-01T18:49:09.818Z,101999.53
2023-02-01T18:51:36.184Z,101994.81
2023-02-01T18:54:02.843Z,101993.25
2023-02-01T18:56:29.336Z,102004.50
2023-02-01T18:58:57.772Z,102006.22
2023-02-01T19:01:24.250Z,102001.81
2023-02-01T19:03:53.421Z,102015.78
2023-02-01T19:06:22.795Z,101998.03
2023-02-01T19:08:50.844Z,102009.69
2023-02-01T19:11:17.222Z,102013.69
2023-02-01T19:13:43.816Z,102015.78
2023-02-01T19:16:12.657Z,102017.56
2023-02-01T19:18:39.964Z,102015.19
2023-02-01T19:21:11.865Z,102015.19
2023-02-01T19:23:39.733Z,102024.34
2023-02-01T19:26:14.159Z,102015.47
2023-02-01T19:28:41.217Z,102020.38
2023-02-01T19:31:08.909Z,102011.81
2023-02-01T19:33:36.253Z,102002.91
2023-02-01T19:36:05.971Z,102004.50
2023-02-01T19:38:33.341Z,101993.75
2023-02-01T19:40:59.838Z,101998.34
2023-02-01T19:43:32.219Z,102003.81
2023-02-01T19:45:58.726Z,102003.81
2023-02-01T19:48:36.795Z,102007.00
2023-02-01T19:51:06.912Z,101997.81
2023-02-01T19:53:33.379Z,102003.00
2023-02-01T19:56:01.639Z,102019.25
2023-02-01T19:58:29.293Z,102021.16
2023-02-01T20:00:56.626Z,102003.19
2023-02-01T20:03:23.889Z,102012.09
2023-02-01T20:05:54.613Z,102013.19
2023-02-01T20:08:22.708Z,102010.28
2023-02-01T20:10:49.611Z,102020.75
2023-02-01T20:13:16.284Z,102018.97
2023-02-01T20:15:45.676Z,102020.56
2023-02-01T20:18:12.374Z,102022.06
2023-02-01T20:20:40.826Z,102033.34
2023-02-01T20:23:07.341Z,102035.50
2023-02-01T20:25:36.656Z,102045.28
2023-02-01T20:28:03.753Z,102041.50
2023-02-01T20:30:32.241Z,102045.00
2023-02-01T20:32:58.631Z,102055.28
2023-02-01T20:35:25.301Z,102039.03
2023-02-01T20:37:52.819Z,102041.72
2023-02-01T20:40:19.396Z,102050.38
2023-02-01T20:42:46.243Z,102062.53
2023-02-01T20:45:12.710Z,102066.53
2023-02-01T20:47:41.427Z,102064.13
2023-02-01T20:50:08.593Z,102071.91
2023-02-01T20:52:35.094Z,102079.91
2023-02-01T20:55:01.618Z,102076.13
2023-02-01T20:57:28.070Z,102066.94
2023-02-01T20:59:54.529Z,102074.53
2023-02-01T21:02:20.974Z,102075.59
2023-02-01T21:04:47.558Z,102079.63
2023-02-01T21:07:14.403Z,102074.44
2023-02-01T21:09:41.898Z,102090.59
2023-02-01T21:12:08.554Z,102088.47
2023-02-01T21:14:35.529Z,102078.50
2023-02-01T21:17:02.200Z,102084.22
2023-02-01T21:19:42.845Z,102086.81
2023-02-01T21:22:10.940Z,102094.38
2023-02-01T21:24:37.597Z,102092.50
2023-02-01T21:27:04.424Z,102094.28
2023-02-01T21:29:36.745Z,102097.16
2023-02-01T21:32:04.022Z,102091.97
2023-02-01T21:34:30.701Z,102094.38
2023-02-01T21:36:57.144Z,102098.38
2023-02-01T21:39:23.961Z,102108.88
2023-02-01T21:42:09.155Z,102111.06
2023-02-01T21:44:35.668Z,102123.50
2023-02-01T21:47:02.383Z,102116.22
2023-02-01T21:49:29.056Z,102104.47
2023-02-01T21:52:06.624Z,102110.13
2023-02-01T21:54:33.127Z,102112.03
2023-02-01T21:57:00.040Z,102120.13
2023-02-01T21:59:26.586Z,102123.91
2023-02-01T22:01:53.160Z,102128.78
2023-02-01T22:04:19.675Z,102130.69
2023-02-01T22:06:46.436Z,102131.19
2023-02-01T22:09:21.910Z,102134.47
2023-02-01T22:11:49.480Z,102140.22
2023-02-01T22:14:19.267Z,102142.22
2023-02-01T22:16:46.493Z,102151.69
2023-02-01T22:19:14.009Z,102149.59
2023-02-01T22:21:42.462Z,102144.00
2023-02-01T22:24:11.126Z,102146.19
2023-02-01T22:26:37.726Z,102142.75
2023-02-01T22:29:04.491Z,102150.63
2023-02-01T22:31:31.053Z,102149.84
2023-02-01T22:33:57.586Z,102149.53
2023-02-01T22:36:25.156Z,102145.44
2023-02-01T22:38:52.992Z,102145.94
2023-02-01T22:41:20.319Z,102153.75
2023-02-01T22:43:47.241Z,102158.81
2023-02-01T22:46:16.228Z,102155.06
2023-02-01T22:48:44.978Z,102165.31
2023-02-01T22:51:17.245Z,102155.13
2023-02-01T22:53:43.899Z,102149.53
2023-02-01T22:56:12.271Z,102154.94
2023-02-01T22:58:39.065Z,102158.19
2023-02-01T23:01:08.170Z,102167.34
2023-02-01T23:03:35.672Z,102163.38
2023-02-01T23:06:03.431Z,102155.28
2023-02-01T23:08:30.275Z,102157.50
2023-02-01T23:11:06.709Z,102158.56
2023-02-01T23:13:34.236Z,102157.28
2023-02-01T23:16:05.612Z,102170.19
2023-02-01T23:18:32.223Z,102174.78
2023-02-01T23:21:03.730Z,102169.69
2023-02-01T23:23:30.111Z,102169.69
2023-02-01T23:25:56.459Z,102167.81
2023-02-01T23:28:22.890Z,102174.28
2023-02-01T23:30:49.433Z,102179.66
2023-02-01T23:33:16.175Z,102185.34
2023-02-01T23:35:42.635Z,102185.63
2023-02-01T23:38:09.007Z,102178.38
2023-02-01T23:40:35.579Z,102172.69
2023-02-01T23:43:20.591Z,102180.47
2023-02-01T23:45:46.960Z,102173.22
2023-02-01T23:48:13.354Z,102176.13
2023-02-01T23:50:39.894Z,102176.63
2023-02-01T23:53:06.374Z,102181.22
2023-02-01T23:55:32.727Z,102181.22
2023-02-01T23:57:59.140Z,102180.38
